Time;durP1;ratioP1;P1;durP2;ratioP2;P2;SDS_P1;SDS_P2;PMS_P1;PMS_P2;Temp;Humidity;BMP_temperature;BMP_pressure;BME280_temperature;BME280_humidity;BME280_pressure;Samples;Min_cycle;Max_cycle;Signal;HPM_P1;HPM_P2
2021/05/10 00:01:02;;;;;;;1.14;1.10;;;;;;;18.81;47.17;99227.77;;;;-54
2021/05/10 00:04:01;;;;;;;1.40;1.30;;;;;;;18.81;47.18;99230.30;;;;-53
2021/05/10 00:07:01;;;;;;;1.27;1.19;;;;;;;18.80;47.19;99228.02;;;;-53
2021/05/10 00:10:01;;;;;;;1.32;1.22;;;;;;;18.79;47.21;99228.77;;;;-54
2021/05/10 00:13:02;;;;;;;1.30;1.20;;;;;;;18.79;47.22;99232.91;;;;-54
2021/05/10 00:16:01;;;;;;;1.23;1.13;;;;;;;18.77;47.19;99242.62;;;;-54
2021/05/10 00:19:01;;;;;;;1.53;1.30;;;;;;;18.78;47.18;99247.91;;;;-55
2021/05/10 00:22:01;;;;;;;1.35;1.25;;;;;;;18.77;47.22;99260.16;;;;-55
2021/05/10 00:25:01;;;;;;;1.30;1.20;;;;;;;18.77;47.18;99266.25;;;;-52
2021/05/10 00:28:01;;;;;;;1.36;1.26;;;;;;;18.76;47.17;99263.26;;;;-53
2021/05/10 00:31:01;;;;;;;1.31;1.21;;;;;;;18.75;47.17;99257.73;;;;-52
2021/05/10 00:34:01;;;;;;;1.26;1.16;;;;;;;18.76;47.21;99254.34;;;;-53
2021/05/10 00:37:01;;;;;;;1.25;1.15;;;;;;;18.75;47.17;99234.62;;;;-53
2021/05/10 00:40:01;;;;;;;1.21;1.11;;;;;;;18.75;47.18;99206.88;;;;-54
2021/05/10 00:43:01;;;;;;;1.27;1.19;;;;;;;18.74;47.18;99195.02;;;;-54
2021/05/10 00:46:01;;;;;;;1.31;1.15;;;;;;;18.74;47.20;99202.16;;;;-54
2021/05/10 00:49:01;;;;;;;1.23;1.20;;;;;;;18.73;47.17;99214.67;;;;-54
2021/05/10 00:52:01;;;;;;;1.30;1.20;;;;;;;18.73;47.18;99193.42;;;;-54
2021/05/10 00:55:01;;;;;;;1.30;1.20;;;;;;;18.73;47.18;99176.13;;;;-53
2021/05/10 00:58:03;;;;;;;1.53;1.33;;;;;;;18.72;47.18;99164.71;;;;-54
2021/05/10 01:01:01;;;;;;;1.41;1.17;;;;;;;18.72;47.16;99154.41;;;;-52
2021/05/10 01:04:01;;;;;;;1.30;1.20;;;;;;;18.71;47.16;99135.34;;;;-54
2021/05/10 01:07:01;;;;;;;1.23;1.13;;;;;;;18.70;47.16;99121.80;;;;-54
2021/05/10 01:10:01;;;;;;;1.30;1.20;;;;;;;18.69;47.17;99119.60;;;;-55
2021/05/10 01:13:01;;;;;;;1.15;1.10;;;;;;;18.69;47.17;99123.17;;;;-55
2021/05/10 01:16:01;;;;;;;1.27;1.17;;;;;;;18.69;47.19;99123.92;;;;-54
2021/05/10 01:19:01;;;;;;;1.39;1.29;;;;;;;18.69;47.17;99127.89;;;;-53
2021/05/10 01:22:01;;;;;;;1.31;1.21;;;;;;;18.69;47.17;99127.81;;;;-55
2021/05/10 01:25:01;;;;;;;1.09;1.09;;;;;;;18.67;47.19;99130.02;;;;-54
2021/05/10 01:28:01;;;;;;;1.30;1.20;;;;;;;18.68;47.18;99133.42;;;;-53
2021/05/10 01:31:01;;;;;;;1.29;1.19;;;;;;;18.67;47.14;99122.48;;;;-52
2021/05/10 01:34:01;;;;;;;1.10;1.10;;;;;;;18.67;47.18;99124.67;;;;-54
2021/05/10 01:37:01;;;;;;;1.28;1.19;;;;;;;18.66;47.20;99130.04;;;;-54
2021/05/10 01:40:01;;;;;;;1.29;1.19;;;;;;;18.66;47.18;99119.66;;;;-52
2021/05/10 01:43:01;;;;;;;1.10;1.10;;;;;;;18.66;47.18;99122.09;;;;-54
2021/05/10 01:46:01;;;;;;;1.24;1.19;;;;;;;18.66;47.20;99119.18;;;;-52
2021/05/10 01:49:02;;;;;;;1.21;1.12;;;;;;;18.65;47.16;99125.00;;;;-52
2021/05/10 01:52:02;;;;;;;1.35;1.25;;;;;;;18.65;47.20;99128.67;;;;-52
2021/05/10 01:55:01;;;;;;;1.33;1.23;;;;;;;18.65;47.21;99139.13;;;;-54
2021/05/10 01:58:01;;;;;;;1.34;1.24;;;;;;;18.64;47.18;99137.86;;;;-55
2021/05/10 02:01:01;;;;;;;1.29;1.20;;;;;;;18.64;47.16;99137.86;;;;-55
2021/05/10 02:04:01;;;;;;;1.10;1.10;;;;;;;18.64;47.21;99128.70;;;;-54
2021/05/10 02:07:01;;;;;;;1.11;1.07;;;;;;;18.63;47.17;99133.89;;;;-53
2021/05/10 02:10:01;;;;;;;1.11;1.10;;;;;;;18.63;47.18;99137.79;;;;-55
2021/05/10 02:13:01;;;;;;;1.29;1.20;;;;;;;18.63;47.18;99144.60;;;;-55
2021/05/10 02:16:01;;;;;;;1.30;1.20;;;;;;;18.62;47.16;99132.77;;;;-54
2021/05/10 02:19:01;;;;;;;1.33;1.20;;;;;;;18.62;47.16;99137.81;;;;-52
2021/05/10 02:22:01;;;;;;;1.36;1.26;;;;;;;18.62;47.21;99149.41;;;;-54
2021/05/10 02:25:01;;;;;;;1.20;1.10;;;;;;;18.62;47.18;99140.64;;;;-55
2021/05/10 02:28:01;;;;;;;1.26;1.18;;;;;;;18.61;47.16;99146.14;;;;-53
2021/05/10 02:31:01;;;;;;;1.19;1.13;;;;;;;18.61;47.17;99146.47;;;;-52
2021/05/10 02:34:01;;;;;;;1.30;1.20;;;;;;;18.61;47.18;99136.26;;;;-52
2021/05/10 02:37:01;;;;;;;1.21;1.10;;;;;;;18.61;47.20;99138.13;;;;-54
2021/05/10 02:40:01;;;;;;;1.43;1.27;;;;;;;18.59;47.20;99133.70;;;;-54
2021/05/10 02:43:01;;;;;;;1.11;1.11;;;;;;;18.60;47.18;99124.27;;;;-54
2021/05/10 02:46:01;;;;;;;1.31;1.21;;;;;;;18.60;47.21;99119.41;;;;-52
2021/05/10 02:49:01;;;;;;;1.27;1.20;;;;;;;18.60;47.15;99117.06;;;;-54
2021/05/10 02:52:01;;;;;;;1.29;1.20;;;;;;;18.59;47.19;99108.86;;;;-54
2021/05/10 02:55:01;;;;;;;1.17;1.10;;;;;;;18.59;47.21;99102.86;;;;-52
2021/05/10 02:58:01;;;;;;;1.37;1.27;;;;;;;18.58;47.18;99106.92;;;;-53
2021/05/10 03:01:01;;;;;;;1.31;1.21;;;;;;;18.58;47.19;99101.98;;;;-54
2021/05/10 03:04:01;;;;;;;1.23;1.13;;;;;;;18.57;47.20;99106.87;;;;-52
2021/05/10 03:07:01;;;;;;;1.96;1.20;;;;;;;18.58;47.19;99090.72;;;;-53
2021/05/10 03:10:01;;;;;;;1.30;1.20;;;;;;;18.57;47.17;99103.78;;;;-54
2021/05/10 03:13:01;;;;;;;1.31;1.21;;;;;;;18.57;47.18;99118.64;;;;-54
2021/05/10 03:16:01;;;;;;;1.30;1.20;;;;;;;18.57;47.19;99124.31;;;;-52
2021/05/10 03:19:03;;;;;;;1.93;1.23;;;;;;;18.56;47.17;99118.88;;;;-54
2021/05/10 03:22:01;;;;;;;1.29;1.20;;;;;;;18.56;47.14;99108.73;;;;-55
2021/05/10 03:25:01;;;;;;;1.30;1.20;;;;;;;18.57;47.12;99116.26;;;;-53
2021/05/10 03:28:01;;;;;;;1.30;1.20;;;;;;;18.56;47.11;99105.98;;;;-54
2021/05/10 03:31:01;;;;;;;1.55;1.20;;;;;;;18.56;47.15;99091.71;;;;-54
2021/05/10 03:34:01;;;;;;;1.21;1.20;;;;;;;18.56;47.18;99103.39;;;;-54
2021/05/10 03:37:01;;;;;;;1.37;1.27;;;;;;;18.55;47.15;99110.63;;;;-55
2021/05/10 03:40:01;;;;;;;1.30;1.20;;;;;;;18.56;47.16;99114.75;;;;-55
2021/05/10 03:43:01;;;;;;;1.29;1.19;;;;;;;18.55;47.16;99115.14;;;;-54
2021/05/10 03:46:01;;;;;;;1.17;1.16;;;;;;;18.55;47.13;99121.31;;;;-55
2021/05/10 03:49:01;;;;;;;1.79;1.13;;;;;;;18.55;47.14;99139.09;;;;-55
2021/05/10 03:52:01;;;;;;;1.04;1.04;;;;;;;18.54;47.14;99156.13;;;;-54
2021/05/10 03:55:01;;;;;;;1.50;1.20;;;;;;;18.55;47.13;99195.30;;;;-55
2021/05/10 03:58:01;;;;;;;1.28;1.19;;;;;;;18.54;47.16;99246.91;;;;-55
2021/05/10 04:01:01;;;;;;;1.09;1.08;;;;;;;18.55;47.16;99275.38;;;;-52
2021/05/10 04:04:09;;;;;;;1.17;1.10;;;;;;;18.54;47.13;99283.52;;;;-52
2021/05/10 04:07:19;;;;;;;0.99;0.99;;;;;;;18.54;47.12;99263.56;;;;-53
2021/05/10 04:10:25;;;;;;;1.29;1.20;;;;;;;18.53;47.12;99262.44;;;;-54
2021/05/10 04:16:01;;;;;;;1.26;1.18;;;;;;;18.53;47.15;99268.42;;;;-54
2021/05/10 04:19:01;;;;;;;1.30;1.20;;;;;;;18.52;47.14;99264.63;;;;-55
2021/05/10 04:22:01;;;;;;;1.19;1.19;;;;;;;18.52;47.14;99264.55;;;;-54
2021/05/10 04:25:01;;;;;;;1.07;1.03;;;;;;;18.52;47.13;99274.20;;;;-54
2021/05/10 04:28:01;;;;;;;1.13;1.12;;;;;;;18.52;47.11;99287.18;;;;-55
2021/05/10 04:31:01;;;;;;;1.14;1.12;;;;;;;18.52;47.15;99284.50;;;;-54
2021/05/10 04:34:01;;;;;;;1.14;1.14;;;;;;;18.52;47.10;99288.73;;;;-54
2021/05/10 04:37:01;;;;;;;1.12;1.10;;;;;;;18.51;47.14;99286.03;;;;-52
2021/05/10 04:40:01;;;;;;;1.30;1.20;;;;;;;18.51;47.16;99288.30;;;;-54
2021/05/10 04:43:01;;;;;;;1.11;1.07;;;;;;;18.51;47.16;99299.45;;;;-54
2021/05/10 04:46:01;;;;;;;1.13;1.10;;;;;;;18.51;47.15;99277.44;;;;-54
2021/05/10 04:49:01;;;;;;;1.29;1.19;;;;;;;18.50;47.07;99272.09;;;;-54
2021/05/10 04:52:01;;;;;;;1.16;1.10;;;;;;;18.50;47.12;99267.97;;;;-52
2021/05/10 04:55:01;;;;;;;1.13;1.09;;;;;;;18.50;47.10;99260.91;;;;-52
2021/05/10 04:58:01;;;;;;;1.19;1.14;;;;;;;18.50;47.10;99263.27;;;;-53
2021/05/10 05:01:01;;;;;;;1.24;1.15;;;;;;;18.50;47.15;99285.09;;;;-55
2021/05/10 05:04:01;;;;;;;1.16;1.10;;;;;;;18.50;47.10;99301.72;;;;-55
2021/05/10 05:07:01;;;;;;;1.18;1.09;;;;;;;18.50;47.12;99310.32;;;;-55
2021/05/10 05:10:01;;;;;;;1.10;1.10;;;;;;;18.49;47.10;99332.31;;;;-54
2021/05/10 05:13:01;;;;;;;1.30;1.20;;;;;;;18.50;47.07;99350.63;;;;-54
2021/05/10 05:16:01;;;;;;;1.13;1.10;;;;;;;18.50;47.13;99360.84;;;;-55
2021/05/10 05:19:01;;;;;;;1.10;1.10;;;;;;;18.48;47.05;99355.41;;;;-53
2021/05/10 05:22:01;;;;;;;1.10;1.10;;;;;;;18.48;47.10;99358.34;;;;-55
2021/05/10 05:25:01;;;;;;;1.14;1.12;;;;;;;18.48;47.14;99376.19;;;;-54
2021/05/10 05:28:01;;;;;;;1.26;1.15;;;;;;;18.49;47.10;99387.94;;;;-53
2021/05/10 05:31:01;;;;;;;1.23;1.14;;;;;;;18.48;47.06;99394.77;;;;-54
2021/05/10 05:34:01;;;;;;;1.15;1.15;;;;;;;18.49;47.10;99401.73;;;;-54
2021/05/10 05:37:01;;;;;;;1.05;1.05;;;;;;;18.48;47.09;99404.09;;;;-54
2021/05/10 05:40:01;;;;;;;1.14;1.10;;;;;;;18.49;47.11;99413.90;;;;-54
2021/05/10 05:43:01;;;;;;;1.18;1.15;;;;;;;18.47;47.05;99400.05;;;;-55
2021/05/10 05:46:02;;;;;;;1.25;1.20;;;;;;;18.47;47.09;99394.86;;;;-55
2021/05/10 05:49:01;;;;;;;1.19;1.09;;;;;;;18.47;47.08;99387.40;;;;-54
2021/05/10 05:52:01;;;;;;;1.10;1.10;;;;;;;18.47;47.04;99388.38;;;;-54
2021/05/10 05:55:01;;;;;;;1.10;1.10;;;;;;;18.47;47.10;99390.32;;;;-52
2021/05/10 05:58:01;;;;;;;1.33;1.23;;;;;;;18.48;47.09;99399.07;;;;-52
2021/05/10 06:01:01;;;;;;;1.00;1.00;;;;;;;18.47;47.11;99413.84;;;;-52
2021/05/10 06:04:01;;;;;;;1.31;1.21;;;;;;;18.47;47.08;99423.09;;;;-54
2021/05/10 06:07:01;;;;;;;1.13;1.13;;;;;;;18.47;47.10;99425.05;;;;-52
2021/05/10 06:10:02;;;;;;;1.17;1.11;;;;;;;18.47;47.08;99434.61;;;;-55
2021/05/10 06:13:01;;;;;;;1.20;1.10;;;;;;;18.46;46.99;99434.28;;;;-53
2021/05/10 06:16:01;;;;;;;1.20;1.10;;;;;;;18.47;47.08;99439.70;;;;-55
2021/05/10 06:19:01;;;;;;;1.20;1.20;;;;;;;18.47;47.10;99441.92;;;;-54
2021/05/10 06:22:01;;;;;;;1.26;1.18;;;;;;;18.46;47.04;99443.53;;;;-55
2021/05/10 06:25:01;;;;;;;1.16;1.15;;;;;;;18.46;47.07;99453.42;;;;-54
2021/05/10 06:28:01;;;;;;;1.12;1.09;;;;;;;18.47;47.09;99454.17;;;;-53
2021/05/10 06:31:01;;;;;;;1.03;1.03;;;;;;;18.45;47.02;99454.74;;;;-55
2021/05/10 06:34:02;;;;;;;1.10;1.10;;;;;;;18.46;47.04;99451.08;;;;-54
2021/05/10 06:37:01;;;;;;;1.31;1.21;;;;;;;18.46;47.03;99457.64;;;;-55
2021/05/10 06:40:01;;;;;;;1.12;1.12;;;;;;;18.46;47.04;99468.69;;;;-55
2021/05/10 06:43:01;;;;;;;1.10;1.10;;;;;;;18.46;47.00;99473.48;;;;-55
2021/05/10 06:46:01;;;;;;;1.21;1.20;;;;;;;18.46;47.02;99463.81;;;;-54
2021/05/10 06:49:01;;;;;;;1.21;1.14;;;;;;;18.46;46.99;99466.48;;;;-54
2021/05/10 06:52:01;;;;;;;1.11;1.11;;;;;;;18.45;46.99;99464.31;;;;-55
2021/05/10 06:55:01;;;;;;;1.14;1.09;;;;;;;18.46;47.02;99462.11;;;;-55
2021/05/10 06:58:01;;;;;;;1.15;1.14;;;;;;;18.46;47.00;99480.78;;;;-55
2021/05/10 07:01:01;;;;;;;1.05;1.04;;;;;;;18.45;46.99;99494.16;;;;-54
2021/05/10 07:04:01;;;;;;;1.10;1.10;;;;;;;18.46;47.00;99497.16;;;;-55
2021/05/10 07:07:01;;;;;;;1.12;1.11;;;;;;;18.45;47.00;99496.03;;;;-51
2021/05/10 07:10:01;;;;;;;1.63;1.31;;;;;;;18.47;47.53;99500.73;;;;-61
2021/05/10 07:13:01;;;;;;;2.21;1.15;;;;;;;18.48;47.64;99502.25;;;;-57
2021/05/10 07:16:01;;;;;;;1.32;1.22;;;;;;;18.50;47.92;99517.66;;;;-55
2021/05/10 07:19:01;;;;;;;1.95;1.37;;;;;;;18.51;48.29;99527.41;;;;-52
2021/05/10 07:22:01;;;;;;;2.20;1.30;;;;;;;18.52;48.68;99534.61;;;;-53
2021/05/10 07:25:01;;;;;;;2.75;1.51;;;;;;;18.54;49.49;99545.08;;;;-51
2021/05/10 07:28:02;;;;;;;3.84;1.47;;;;;;;18.56;49.88;99557.40;;;;-53
2021/05/10 07:31:01;;;;;;;2.95;1.28;;;;;;;18.57;49.13;99557.08;;;;-52
2021/05/10 07:34:01;;;;;;;2.41;1.41;;;;;;;18.58;48.97;99567.13;;;;-49
2021/05/10 07:37:01;;;;;;;4.09;1.40;;;;;;;18.59;48.94;99576.44;;;;-51
2021/05/10 07:40:01;;;;;;;2.59;1.34;;;;;;;18.60;48.58;99579.45;;;;-53
2021/05/10 07:43:01;;;;;;;1.81;1.43;;;;;;;18.61;48.33;99563.86;;;;-51
2021/05/10 07:46:01;;;;;;;3.23;1.33;;;;;;;18.64;48.21;99563.62;;;;-52
2021/05/10 07:49:01;;;;;;;1.52;1.27;;;;;;;18.66;48.09;99562.06;;;;-49
2021/05/10 07:52:01;;;;;;;1.40;1.30;;;;;;;18.69;47.99;99561.95;;;;-51
2021/05/10 07:55:01;;;;;;;1.69;1.39;;;;;;;18.73;48.62;99570.62;;;;-49
2021/05/10 07:58:01;;;;;;;2.29;1.31;;;;;;;18.76;48.96;99572.00;;;;-53
2021/05/10 08:01:03;;;;;;;2.56;1.41;;;;;;;18.80;48.82;99568.11;;;;-53
2021/05/10 08:04:01;;;;;;;5.73;1.54;;;;;;;18.84;49.45;99558.27;;;;-54
2021/05/10 08:07:01;;;;;;;2.87;1.49;;;;;;;18.89;49.16;99558.40;;;;-51
2021/05/10 08:10:01;;;;;;;3.49;1.30;;;;;;;18.93;49.25;99570.88;;;;-51
2021/05/10 08:13:01;;;;;;;6.01;1.57;;;;;;;18.96;48.86;99572.63;;;;-52
2021/05/10 08:16:01;;;;;;;1.87;1.30;;;;;;;19.00;49.13;99565.78;;;;-61
2021/05/10 08:19:01;;;;;;;4.44;1.41;;;;;;;19.05;49.21;99566.00;;;;-57
2021/05/10 08:22:01;;;;;;;3.87;1.72;;;;;;;19.06;49.37;99576.72;;;;-46
2021/05/10 08:25:01;;;;;;;2.11;1.60;;;;;;;19.10;49.47;99586.05;;;;-49
2021/05/10 08:28:01;;;;;;;3.07;1.50;;;;;;;19.12;49.17;99582.30;;;;-52
2021/05/10 08:31:01;;;;;;;5.23;1.55;;;;;;;19.15;49.56;99580.30;;;;-57
2021/05/10 08:34:01;;;;;;;1.72;1.62;;;;;;;19.18;49.42;99582.25;;;;-52
2021/05/10 08:37:01;;;;;;;2.15;1.55;;;;;;;19.21;49.21;99592.13;;;;-51
2021/05/10 08:40:31;;;;;;;3.95;1.47;;;;;;;19.24;49.12;99607.16;;;;-48
2021/05/10 08:43:01;;;;;;;1.87;1.41;;;;;;;19.27;49.36;99613.47;;;;-45
2021/05/10 08:46:04;;;;;;;1.81;1.47;;;;;;;19.29;49.33;99625.78;;;;-50
2021/05/10 08:49:01;;;;;;;2.27;1.53;;;;;;;19.30;48.96;99649.03;;;;-58
2021/05/10 08:52:01;;;;;;;2.15;1.41;;;;;;;19.30;48.62;99644.64;;;;-58
2021/05/10 08:55:01;;;;;;;4.60;1.81;;;;;;;19.33;48.85;99636.09;;;;-52
2021/05/10 08:58:01;;;;;;;3.23;1.60;;;;;;;19.34;48.93;99652.34;;;;-56
2021/05/10 09:01:01;;;;;;;4.21;1.47;;;;;;;19.36;48.88;99648.48;;;;-59
2021/05/10 09:04:01;;;;;;;4.79;1.63;;;;;;;19.37;49.09;99638.83;;;;-49
2021/05/10 09:07:01;;;;;;;3.79;1.50;;;;;;;19.39;48.98;99641.09;;;;-55
2021/05/10 09:10:01;;;;;;;4.12;1.39;;;;;;;19.40;48.96;99639.03;;;;-50
2021/05/10 09:13:01;;;;;;;1.67;1.38;;;;;;;19.42;48.89;99640.33;;;;-50
2021/05/10 09:16:02;;;;;;;2.17;1.40;;;;;;;19.43;48.91;99643.75;;;;-56
2021/05/10 09:19:01;;;;;;;2.49;1.38;;;;;;;19.42;48.51;99654.24;;;;-54
2021/05/10 09:22:01;;;;;;;2.93;1.41;;;;;;;19.44;48.66;99660.88;;;;-56
2021/05/10 09:25:01;;;;;;;2.88;1.53;;;;;;;19.44;48.26;99676.56;;;;-56
2021/05/10 09:28:01;;;;;;;3.51;1.60;;;;;;;19.44;48.52;99680.39;;;;-53
2021/05/10 09:31:01;;;;;;;2.97;1.47;;;;;;;19.44;48.66;99681.86;;;;-50
2021/05/10 09:34:02;;;;;;;2.66;1.57;;;;;;;19.45;48.77;99680.86;;;;-44
2021/05/10 09:37:01;;;;;;;2.11;1.50;;;;;;;19.45;48.70;99684.92;;;;-47
2021/05/10 09:40:01;;;;;;;4.02;1.49;;;;;;;19.47;48.77;99671.09;;;;-50
2021/05/10 09:43:01;;;;;;;4.12;1.67;;;;;;;19.47;48.67;99681.27;;;;-49
2021/05/10 09:46:01;;;;;;;5.21;1.55;;;;;;;19.46;48.87;99684.44;;;;-50
2021/05/10 09:49:01;;;;;;;12.99;1.81;;;;;;;19.47;48.80;99683.05;;;;-54
2021/05/10 09:52:01;;;;;;;4.57;1.51;;;;;;;19.48;48.76;99678.64;;;;-52
2021/05/10 09:55:01;;;;;;;2.67;1.40;;;;;;;19.48;48.67;99690.52;;;;-57
2021/05/10 09:58:01;;;;;;;6.01;1.71;;;;;;;19.48;48.68;99689.84;;;;-51
2021/05/10 10:01:01;;;;;;;4.11;1.45;;;;;;;19.50;48.77;99679.59;;;;-58
2021/05/10 10:04:01;;;;;;;3.73;1.56;;;;;;;19.51;48.60;99688.22;;;;-48
2021/05/10 10:07:01;;;;;;;3.97;1.70;;;;;;;19.52;48.60;99692.09;;;;-51
2021/05/10 10:10:01;;;;;;;3.61;1.52;;;;;;;19.53;48.63;99701.71;;;;-54
2021/05/10 10:13:01;;;;;;;3.58;1.57;;;;;;;19.53;48.58;99703.87;;;;-46
2021/05/10 10:16:01;;;;;;;3.57;1.56;;;;;;;19.53;48.63;99706.90;;;;-50
2021/05/10 10:19:01;;;;;;;1.96;1.43;;;;;;;19.54;48.68;99720.05;;;;-51
2021/05/10 10:22:01;;;;;;;3.65;1.50;;;;;;;19.54;48.56;99729.31;;;;-48
2021/05/10 10:25:01;;;;;;;4.69;1.52;;;;;;;19.54;48.63;99733.86;;;;-52
2021/05/10 10:28:01;;;;;;;2.21;1.37;;;;;;;19.54;48.70;99743.61;;;;-56
2021/05/10 10:31:01;;;;;;;2.53;1.50;;;;;;;19.55;48.71;99738.65;;;;-49
2021/05/10 10:34:01;;;;;;;1.76;1.24;;;;;;;19.55;48.84;99723.62;;;;-50
2021/05/10 10:37:01;;;;;;;2.78;1.49;;;;;;;19.55;48.58;99715.67;;;;-49
2021/05/10 10:40:02;;;;;;;3.43;1.45;;;;;;;19.57;48.82;99712.30;;;;-51
2021/05/10 10:43:01;;;;;;;2.81;1.43;;;;;;;19.57;48.86;99708.17;;;;-51
2021/05/10 10:46:01;;;;;;;3.83;1.43;;;;;;;19.58;48.87;99707.36;;;;-52
2021/05/10 10:49:01;;;;;;;5.32;1.51;;;;;;;19.59;49.08;99705.08;;;;-56
2021/05/10 10:52:01;;;;;;;1.59;1.37;;;;;;;19.59;48.54;99723.53;;;;-54
2021/05/10 10:55:01;;;;;;;2.40;1.40;;;;;;;19.58;48.41;99735.30;;;;-53
2021/05/10 10:58:01;;;;;;;1.94;1.40;;;;;;;19.57;48.24;99745.97;;;;-53
2021/05/10 11:01:01;;;;;;;2.29;1.43;;;;;;;19.57;48.16;99741.40;;;;-52
2021/05/10 11:04:01;;;;;;;2.32;1.47;;;;;;;19.55;48.05;99748.09;;;;-53
2021/05/10 11:07:01;;;;;;;2.57;1.43;;;;;;;19.55;47.97;99751.27;;;;-51
2021/05/10 11:10:01;;;;;;;1.90;1.39;;;;;;;19.54;47.94;99762.97;;;;-53
2021/05/10 11:13:01;;;;;;;2.84;1.42;;;;;;;19.53;47.90;99767.86;;;;-52
2021/05/10 11:16:01;;;;;;;2.49;1.43;;;;;;;19.53;47.89;99780.37;;;;-56
2021/05/10 11:19:04;;;;;;;2.89;1.35;;;;;;;19.52;47.79;99781.41;;;;-53
2021/05/10 11:22:01;;;;;;;2.14;1.36;;;;;;;19.52;47.75;99778.90;;;;-58
2021/05/10 11:25:01;;;;;;;1.93;1.37;;;;;;;19.51;47.69;99780.30;;;;-55
2021/05/10 11:28:01;;;;;;;2.32;1.29;;;;;;;19.51;47.68;99786.31;;;;-51
2021/05/10 11:31:01;;;;;;;1.31;1.21;;;;;;;19.50;47.67;99784.27;;;;-52
2021/05/10 11:34:01;;;;;;;1.45;1.30;;;;;;;19.50;47.61;99789.88;;;;-53
2021/05/10 11:37:01;;;;;;;1.94;1.39;;;;;;;19.49;47.61;99799.16;;;;-56
2021/05/10 11:40:01;;;;;;;2.31;1.43;;;;;;;19.49;47.59;99809.80;;;;-53
2021/05/10 11:43:01;;;;;;;2.37;1.30;;;;;;;19.49;47.60;99816.23;;;;-53
2021/05/10 11:46:01;;;;;;;2.27;1.31;;;;;;;19.49;47.51;99821.35;;;;-53
2021/05/10 11:49:01;;;;;;;1.60;1.41;;;;;;;19.48;47.49;99827.42;;;;-56
2021/05/10 11:52:01;;;;;;;1.92;1.30;;;;;;;19.48;47.50;99828.56;;;;-51
2021/05/10 11:55:02;;;;;;;1.57;1.39;;;;;;;19.47;47.44;99830.20;;;;-56
2021/05/10 11:58:02;;;;;;;1.30;1.20;;;;;;;19.47;47.41;99831.50;;;;-54
2021/05/10 12:01:01;;;;;;;1.41;1.29;;;;;;;19.47;47.40;99828.58;;;;-53
2021/05/10 12:04:01;;;;;;;1.35;1.25;;;;;;;19.48;47.69;99833.03;;;;-56
2021/05/10 12:07:01;;;;;;;2.11;1.42;;;;;;;19.49;47.70;99832.14;;;;-52
2021/05/10 12:10:02;;;;;;;1.85;1.23;;;;;;;19.51;47.83;99837.16;;;;-53
2021/05/10 12:13:01;;;;;;;2.53;1.25;;;;;;;19.51;47.55;99834.56;;;;-52
2021/05/10 12:16:01;;;;;;;1.72;1.35;;;;;;;19.50;47.54;99834.41;;;;-54
2021/05/10 12:19:01;;;;;;;4.33;1.30;;;;;;;19.49;47.75;99835.98;;;;-52
2021/05/10 12:22:01;;;;;;;2.38;1.41;;;;;;;19.49;47.92;99837.60;;;;-47
2021/05/10 12:25:01;;;;;;;2.05;1.39;;;;;;;19.49;48.03;99828.09;;;;-47
2021/05/10 12:28:02;;;;;;;1.42;1.32;;;;;;;19.48;48.13;99839.45;;;;-49
2021/05/10 12:31:01;;;;;;;2.39;1.37;;;;;;;19.49;48.15;99839.30;;;;-53
2021/05/10 12:34:01;;;;;;;2.13;1.45;;;;;;;19.49;48.15;99823.45;;;;-48
2021/05/10 12:37:01;;;;;;;1.79;1.33;;;;;;;19.48;48.12;99823.12;;;;-48
2021/05/10 12:40:01;;;;;;;2.31;1.30;;;;;;;19.50;48.07;99828.07;;;;-53
2021/05/10 12:43:01;;;;;;;3.23;1.30;;;;;;;19.50;48.21;99830.58;;;;-60
2021/05/10 12:46:02;;;;;;;1.67;1.33;;;;;;;19.51;48.31;99838.73;;;;-51
2021/05/10 12:49:01;;;;;;;2.48;1.21;;;;;;;19.53;48.55;99843.77;;;;-52
2021/05/10 12:52:01;;;;;;;2.45;1.36;;;;;;;19.55;48.57;99834.01;;;;-58
2021/05/10 12:55:01;;;;;;;2.74;1.20;;;;;;;19.56;48.46;99834.88;;;;-55
2021/05/10 12:58:01;;;;;;;1.66;1.40;;;;;;;19.57;48.39;99851.87;;;;-54
2021/05/10 13:01:01;;;;;;;2.49;1.40;;;;;;;19.59;48.36;99863.98;;;;-54
2021/05/10 13:04:01;;;;;;;3.17;1.40;;;;;;;19.59;48.42;99859.73;;;;-52
2021/05/10 13:07:01;;;;;;;2.97;1.32;;;;;;;19.60;48.39;99863.23;;;;-56
2021/05/10 13:10:01;;;;;;;1.77;1.30;;;;;;;19.61;48.37;99861.13;;;;-52
2021/05/10 13:13:01;;;;;;;1.51;1.40;;;;;;;19.62;48.36;99857.53;;;;-52
2021/05/10 13:16:04;;;;;;;4.61;1.43;;;;;;;19.63;48.27;99853.64;;;;-57
2021/05/10 13:19:04;;;;;;;1.68;1.19;;;;;;;19.64;48.25;99855.66;;;;-51
2021/05/10 13:22:29;;;;;;;1.96;1.30;;;;;;;19.64;48.25;99858.91;;;;-49
2021/05/10 13:34:07;;;;;;;1.30;1.20;;;;;;;19.67;48.13;99858.67;;;;-53
2021/05/10 13:37:01;;;;;;;1.97;1.27;;;;;;;19.68;48.18;99868.81;;;;-55
2021/05/10 13:40:01;;;;;;;2.15;1.30;;;;;;;19.68;48.11;99866.70;;;;-47
2021/05/10 13:43:06;;;;;;;1.53;1.27;;;;;;;19.69;48.10;99862.53;;;;-49
2021/05/10 13:46:03;;;;;;;2.12;1.30;;;;;;;19.70;48.10;99851.50;;;;-54
2021/05/10 13:49:01;;;;;;;1.73;1.30;;;;;;;19.69;48.19;99843.11;;;;-51
2021/05/10 13:52:01;;;;;;;5.79;1.30;;;;;;;19.71;49.07;99843.86;;;;-48
2021/05/10 13:55:02;;;;;;;5.57;1.32;;;;;;;19.70;48.65;99837.42;;;;-52
2021/05/10 13:58:01;;;;;;;2.03;1.40;;;;;;;19.69;48.53;99828.06;;;;-46
2021/05/10 14:01:01;;;;;;;1.30;1.11;;;;;;;19.69;48.39;99823.76;;;;-51
2021/05/10 14:04:01;;;;;;;1.36;1.19;;;;;;;19.69;48.44;99832.23;;;;-49
2021/05/10 14:07:01;;;;;;;4.01;1.29;;;;;;;19.71;48.53;99830.94;;;;-53
2021/05/10 14:10:01;;;;;;;2.94;1.24;;;;;;;19.73;48.36;99834.50;;;;-51
2021/05/10 14:13:01;;;;;;;4.41;1.20;;;;;;;19.75;48.35;99831.97;;;;-53
2021/05/10 14:16:01;;;;;;;3.49;1.35;;;;;;;19.77;48.34;99837.58;;;;-53
2021/05/10 14:19:06;;;;;;;1.80;1.11;;;;;;;19.79;48.21;99835.70;;;;-52
2021/05/10 14:22:02;;;;;;;1.59;1.17;;;;;;;19.81;48.22;99837.56;;;;-51
2021/05/10 14:25:01;;;;;;;1.51;1.24;;;;;;;19.83;48.16;99833.90;;;;-51
2021/05/10 14:28:01;;;;;;;1.58;1.11;;;;;;;19.85;48.35;99825.98;;;;-51
2021/05/10 14:31:01;;;;;;;2.61;1.25;;;;;;;19.88;48.38;99819.65;;;;-53
2021/05/10 14:34:01;;;;;;;1.20;1.10;;;;;;;19.90;48.39;99810.86;;;;-50
2021/05/10 14:37:01;;;;;;;1.95;1.21;;;;;;;19.92;48.43;99805.45;;;;-49
2021/05/10 14:40:01;;;;;;;2.01;1.12;;;;;;;19.93;48.40;99802.95;;;;-52
2021/05/10 14:43:01;;;;;;;1.39;1.08;;;;;;;19.95;48.43;99799.50;;;;-52
2021/05/10 14:46:01;;;;;;;2.60;1.21;;;;;;;19.97;48.44;99793.00;;;;-52
2021/05/10 14:49:01;;;;;;;2.75;1.19;;;;;;;19.99;48.25;99796.48;;;;-52
2021/05/10 14:52:01;;;;;;;2.79;1.15;;;;;;;20.01;48.58;99808.92;;;;-53
2021/05/10 14:55:01;;;;;;;3.84;1.27;;;;;;;20.03;48.50;99812.23;;;;-50
2021/05/10 14:58:01;;;;;;;3.65;1.30;;;;;;;20.06;48.87;99814.63;;;;-47
2021/05/10 15:01:01;;;;;;;2.91;1.10;;;;;;;20.08;48.77;99818.46;;;;-53
2021/05/10 15:04:01;;;;;;;2.05;1.29;;;;;;;20.10;48.85;99816.97;;;;-44
2021/05/10 15:07:01;;;;;;;3.51;1.10;;;;;;;20.14;49.04;99814.60;;;;-54
2021/05/10 15:10:01;;;;;;;1.76;1.21;;;;;;;20.15;48.82;99816.53;;;;-54
2021/05/10 15:13:01;;;;;;;4.05;1.09;;;;;;;20.17;48.89;99821.73;;;;-51
2021/05/10 15:16:01;;;;;;;1.85;1.15;;;;;;;20.17;48.41;99828.58;;;;-48
2021/05/10 15:19:01;;;;;;;2.89;1.24;;;;;;;20.18;48.50;99836.54;;;;-53
2021/05/10 15:22:01;;;;;;;2.93;1.20;;;;;;;20.18;48.21;99838.98;;;;-56
2021/05/10 15:25:01;;;;;;;3.97;1.20;;;;;;;20.17;48.05;99843.11;;;;-52
2021/05/10 15:28:01;;;;;;;1.47;1.07;;;;;;;20.17;47.95;99840.45;;;;-52
2021/05/10 15:31:01;;;;;;;1.69;1.07;;;;;;;20.17;47.84;99841.25;;;;-53
2021/05/10 15:45:35;;;;;;;1.65;1.09;;;;;;;20.27;48.32;99845.11;;;;-57
2021/05/10 15:48:35;;;;;;;3.02;1.35;;;;;;;20.30;48.37;99850.69;;;;-47
2021/05/10 15:51:35;;;;;;;1.81;1.10;;;;;;;20.32;48.25;99845.80;;;;-50
2021/05/10 15:54:35;;;;;;;3.38;1.10;;;;;;;20.34;48.28;99841.33;;;;-47
2021/05/10 15:57:35;;;;;;;1.24;0.95;;;;;;;20.35;48.36;99847.06;;;;-48
2021/05/10 16:00:35;;;;;;;1.30;1.03;;;;;;;20.36;48.23;99844.23;;;;-47
2021/05/10 16:03:35;;;;;;;2.67;1.11;;;;;;;20.36;48.29;99842.84;;;;-50
2021/05/10 16:06:35;;;;;;;1.20;1.10;;;;;;;20.37;48.23;99837.45;;;;-54
2021/05/10 16:09:35;;;;;;;2.17;1.18;;;;;;;20.39;48.21;99842.73;;;;-55
2021/05/10 16:12:35;;;;;;;1.03;1.01;;;;;;;20.39;48.41;99833.03;;;;-53
2021/05/10 16:15:35;;;;;;;2.09;0.92;;;;;;;20.41;48.12;99841.98;;;;-54
2021/05/10 16:18:37;;;;;;;2.69;1.19;;;;;;;20.42;48.21;99842.64;;;;-52
2021/05/10 16:21:35;;;;;;;1.68;1.05;;;;;;;20.43;48.26;99847.42;;;;-53
2021/05/10 16:24:35;;;;;;;2.53;1.20;;;;;;;20.44;48.15;99852.05;;;;-59
2021/05/10 16:27:35;;;;;;;2.15;1.10;;;;;;;20.45;48.20;99843.98;;;;-51
2021/05/10 16:30:35;;;;;;;2.74;1.14;;;;;;;20.46;48.22;99838.70;;;;-46
2021/05/10 16:33:35;;;;;;;2.59;1.15;;;;;;;20.49;48.28;99843.80;;;;-60
2021/05/10 16:36:35;;;;;;;1.79;1.05;;;;;;;20.49;47.94;99835.90;;;;-48
2021/05/10 16:39:36;;;;;;;0.89;0.89;;;;;;;20.50;47.82;99837.86;;;;-50
2021/05/10 16:42:35;;;;;;;2.33;1.20;;;;;;;20.53;48.21;99837.50;;;;-51
2021/05/10 16:45:37;;;;;;;1.59;1.12;;;;;;;20.54;48.15;99827.64;;;;-55
2021/05/10 16:48:35;;;;;;;1.43;1.06;;;;;;;20.54;48.15;99826.92;;;;-52
2021/05/10 16:51:38;;;;;;;1.41;1.11;;;;;;;20.55;48.16;99824.38;;;;-47
2021/05/10 16:54:35;;;;;;;1.03;0.93;;;;;;;20.56;47.83;99829.64;;;;-48
2021/05/10 16:57:35;;;;;;;2.63;1.01;;;;;;;20.55;47.73;99826.83;;;;-49
2021/05/10 17:00:38;;;;;;;1.80;1.08;;;;;;;20.54;47.63;99821.53;;;;-51
2021/05/10 17:03:35;;;;;;;1.86;1.10;;;;;;;20.52;47.59;99823.19;;;;-46
2021/05/10 17:06:35;;;;;;;0.91;0.91;;;;;;;20.52;47.51;99825.05;;;;-48
2021/05/10 17:09:35;;;;;;;0.99;0.93;;;;;;;20.50;47.50;99824.34;;;;-49
2021/05/10 17:12:35;;;;;;;4.89;1.00;;;;;;;20.50;47.75;99821.15;;;;-50
2021/05/10 17:15:35;;;;;;;1.36;1.01;;;;;;;20.50;48.05;99818.70;;;;-51
2021/05/10 17:18:35;;;;;;;2.17;1.09;;;;;;;20.51;48.24;99821.39;;;;-52